Time;durP1;ratioP1;P1;durP2;ratioP2;P2;SDS_P1;SDS_P2;PMS_P1;PMS_P2;Temp;Humidity;BMP_temperature;BMP_pressure;BME280_temperature;BME280_humidity;BME280_pressure;Samples;Min_cycle;Max_cycle;Signal;HPM_P1;HPM_P2
2023/05/22 00:00:08;;;;;;;8.63;6.25;;;;;;;24.93;43.96;99608.34;4251085;33;33403;-64
2023/05/22 00:02:37;;;;;;;7.60;6.12;;;;;;;24.92;44.00;99617.59;4247512;33;34834;-64
2023/05/22 00:05:06;;;;;;;9.20;5.57;;;;;;;24.91;44.01;99616.78;4260208;33;34714;-64
2023/05/22 00:07:33;;;;;;;7.37;5.60;;;;;;;24.91;43.98;99614.03;4258913;33;34147;-64
2023/05/22 00:10:01;;;;;;;9.00;5.87;;;;;;;24.91;43.98;99618.69;4259394;33;33648;-64
2023/05/22 00:12:29;;;;;;;7.22;5.50;;;;;;;24.90;43.98;99604.22;4260121;33;34143;-65
2023/05/22 00:14:56;;;;;;;7.07;5.50;;;;;;;24.90;44.00;99615.13;4259980;33;34004;-64
2023/05/22 00:17:25;;;;;;;7.80;5.68;;;;;;;24.90;43.99;99619.72;4260124;33;33740;-64
2023/05/22 00:19:54;;;;;;;7.15;5.22;;;;;;;24.90;44.03;99617.84;4247449;33;33462;-64
2023/05/22 00:22:21;;;;;;;7.10;5.15;;;;;;;24.89;44.01;99609.88;4247168;33;33755;-64
2023/05/22 00:24:48;;;;;;;7.70;5.53;;;;;;;24.90;43.96;99606.06;4260082;33;34789;-64
2023/05/22 00:27:16;;;;;;;8.82;5.90;;;;;;;24.89;43.94;99601.69;4260157;33;33739;-64
2023/05/22 00:29:45;;;;;;;7.40;5.72;;;;;;;24.88;43.95;99598.13;4260047;33;34130;-63
2023/05/22 00:32:12;;;;;;;6.87;5.10;;;;;;;24.88;44.04;99606.31;4260004;33;33655;-64
2023/05/22 00:34:40;;;;;;;8.45;5.72;;;;;;;24.87;44.01;99604.69;4247223;33;34930;-64
2023/05/22 00:37:09;;;;;;;7.65;5.78;;;;;;;24.88;44.00;99609.06;4259923;33;33716;-64
2023/05/22 00:39:37;;;;;;;8.68;5.40;;;;;;;24.87;43.97;99604.69;4258855;33;33878;-64
2023/05/22 00:42:05;;;;;;;8.30;5.87;;;;;;;24.87;43.97;99601.12;4259823;33;34338;-64
2023/05/22 00:44:32;;;;;;;7.30;5.70;;;;;;;24.86;43.94;99599.47;4259950;33;33633;-64
2023/05/22 00:47:00;;;;;;;7.95;5.30;;;;;;;24.86;43.90;99604.94;4259898;33;33909;-64
2023/05/22 00:49:28;;;;;;;9.88;5.57;;;;;;;24.85;43.90;99605.97;4259863;33;34094;-65
2023/05/22 00:51:56;;;;;;;8.65;5.55;;;;;;;24.85;43.88;99606.78;4259875;33;34986;-64
2023/05/22 00:54:23;;;;;;;9.38;5.60;;;;;;;24.85;43.82;99605.97;4259887;33;35239;-64
2023/05/22 00:56:51;;;;;;;8.27;5.80;;;;;;;24.85;43.77;99603.25;4246596;33;33916;-64
2023/05/22 00:59:19;;;;;;;8.98;4.90;;;;;;;24.84;43.74;99609.78;4246896;33;33729;-64
2023/05/22 01:01:46;;;;;;;8.00;5.50;;;;;;;24.83;43.74;99608.94;4258462;33;34068;-64
2023/05/22 01:04:17;;;;;;;6.90;5.60;;;;;;;24.81;43.69;99602.91;4259778;33;34328;-64
2023/05/22 01:06:46;;;;;;;9.50;5.68;;;;;;;24.82;43.63;99596.37;4258485;33;34130;-64
2023/05/22 01:09:14;;;;;;;7.93;5.30;;;;;;;24.83;43.74;99591.75;4259545;33;33837;-64
2023/05/22 01:12:05;;;;;;;7.05;4.97;;;;;;;24.82;43.72;99601.00;4259482;33;34843;-64
2023/05/22 01:14:40;;;;;;;7.07;5.03;;;;;;;24.83;43.75;99602.66;4258783;33;34016;-64
2023/05/22 01:17:48;;;;;;;7.20;5.62;;;;;;;24.80;43.80;99603.13;4258360;33;35003;-64
2023/05/22 01:20:18;;;;;;;7.75;5.55;;;;;;;24.82;43.72;99601.00;4258324;33;34198;-64
2023/05/22 01:23:13;;;;;;;8.70;5.60;;;;;;;24.81;43.73;99588.44;4259441;33;33795;-64
2023/05/22 01:26:35;;;;;;;11.10;6.12;;;;;;;24.81;43.70;99591.19;4259355;33;34014;-64
2023/05/22 01:29:39;;;;;;;7.10;5.18;;;;;;;24.80;43.69;99592.22;4243165;33;34639;-62
2023/05/22 01:32:08;;;;;;;8.80;5.18;;;;;;;24.78;43.79;99600.66;4247343;33;33261;-64
2023/05/22 01:34:37;;;;;;;7.75;5.62;;;;;;;24.77;43.87;99598.19;4246437;33;34587;-63
2023/05/22 01:37:04;;;;;;;7.80;5.00;;;;;;;24.77;43.84;99600.91;4257858;33;33754;-63
2023/05/22 01:39:32;;;;;;;7.93;5.65;;;;;;;24.77;43.77;99603.63;4258043;33;33921;-63
2023/05/22 01:42:01;;;;;;;8.15;5.37;;;;;;;24.77;43.73;99598.19;4257829;33;33970;-63
2023/05/22 01:44:28;;;;;;;8.57;5.43;;;;;;;24.77;43.71;99595.44;4246192;33;34694;-64
2023/05/22 01:46:59;;;;;;;7.22;4.72;;;;;;;24.76;43.68;99589.16;4259381;33;33999;-63
2023/05/22 01:49:27;;;;;;;8.52;5.50;;;;;;;24.76;43.72;99593.78;4257953;33;34471;-63
2023/05/22 01:51:57;;;;;;;7.62;5.15;;;;;;;24.75;43.67;99584.75;4260455;33;34640;-63
2023/05/22 01:54:31;;;;;;;8.80;5.37;;;;;;;24.75;43.71;99582.03;4259758;33;34060;-63
2023/05/22 01:57:18;;;;;;;7.60;5.22;;;;;;;24.74;43.74;99576.81;4247848;33;34818;-63
2023/05/22 01:59:53;;;;;;;7.45;5.45;;;;;;;24.75;43.57;99576.56;4264407;33;34102;-63
2023/05/22 02:02:22;;;;;;;7.82;5.45;;;;;;;24.75;43.57;99575.75;4259571;33;33499;-63
2023/05/22 02:04:58;;;;;;;7.50;4.78;;;;;;;24.73;43.56;99570.53;4260924;33;34327;-64
2023/05/22 02:07:26;;;;;;;6.05;4.53;;;;;;;24.73;43.48;99567.81;4259571;33;34588;-63
2023/05/22 02:09:55;;;;;;;5.95;4.32;;;;;;;24.73;43.48;99575.16;4260830;33;33977;-63
2023/05/22 02:12:23;;;;;;;6.20;4.60;;;;;;;24.73;43.46;99569.72;4259767;33;34171;-63
2023/05/22 02:14:50;;;;;;;6.12;4.20;;;;;;;24.71;43.38;99567.22;4259434;33;33715;-64
2023/05/22 02:17:19;;;;;;;6.70;4.90;;;;;;;24.72;43.32;99573.53;4260860;33;34777;-63
2023/05/22 02:19:46;;;;;;;8.00;4.90;;;;;;;24.72;43.26;99570.78;4259675;33;33678;-63
2023/05/22 02:22:14;;;;;;;8.02;4.95;;;;;;;24.71;43.24;99571.84;4260548;33;34373;-63
2023/05/22 02:24:44;;;;;;;5.50;4.15;;;;;;;24.69;43.22;99575.63;4260835;33;34752;-63
2023/05/22 02:27:13;;;;;;;6.43;4.30;;;;;;;24.69;43.24;99572.91;4248382;33;33932;-63
2023/05/22 02:29:40;;;;;;;6.65;4.45;;;;;;;24.70;43.22;99568.28;4260743;33;34689;-63
2023/05/22 02:32:09;;;;;;;7.07;4.82;;;;;;;24.69;43.18;99564.72;4260825;33;33245;-63
2023/05/22 02:34:36;;;;;;;7.10;5.10;;;;;;;24.68;43.19;99560.34;4260758;33;34029;-63
2023/05/22 02:37:04;;;;;;;7.18;5.30;;;;;;;24.68;43.27;99568.53;4260575;33;34839;-63
2023/05/22 02:39:32;;;;;;;7.20;4.87;;;;;;;24.68;43.25;99557.63;4260852;33;35013;-63
2023/05/22 02:41:59;;;;;;;7.57;5.43;;;;;;;24.69;43.23;99553.00;4260727;33;33532;-63
2023/05/22 02:44:27;;;;;;;7.47;5.05;;;;;;;24.69;43.32;99555.72;4260605;33;33926;-63
2023/05/22 02:46:55;;;;;;;6.65;4.75;;;;;;;24.68;43.37;99552.16;4260935;33;34698;-63
2023/05/22 02:49:22;;;;;;;6.60;5.00;;;;;;;24.68;43.35;99557.63;4260656;33;33874;-63
2023/05/22 02:51:50;;;;;;;7.30;4.53;;;;;;;24.68;43.34;99556.78;4260463;33;34211;-63
2023/05/22 02:54:18;;;;;;;9.15;4.90;;;;;;;24.69;43.25;99561.16;4260671;33;33569;-63
2023/05/22 02:56:45;;;;;;;7.68;4.82;;;;;;;24.67;43.26;99560.59;4260592;33;34533;-63
2023/05/22 02:59:13;;;;;;;7.70;4.62;;;;;;;24.67;43.26;99563.31;4260304;33;33723;-63
2023/05/22 03:01:43;;;;;;;7.30;4.47;;;;;;;24.67;43.20;99552.41;4260469;33;34254;-64
2023/05/22 03:04:11;;;;;;;7.57;5.32;;;;;;;24.68;43.23;99559.53;4259808;33;34388;-63
2023/05/22 03:06:40;;;;;;;5.43;4.18;;;;;;;24.68;43.18;99554.06;4260633;33;34381;-63
2023/05/22 03:09:09;;;;;;;8.13;5.03;;;;;;;24.67;43.10;99557.88;4260543;33;34032;-63
2023/05/22 03:11:36;;;;;;;6.68;4.62;;;;;;;24.66;43.15;99561.66;4260430;33;33508;-63
2023/05/22 03:14:04;;;;;;;6.87;4.62;;;;;;;24.66;43.20;99565.19;4260440;33;33940;-64
2023/05/22 03:16:33;;;;;;;9.50;5.10;;;;;;;24.66;43.15;99561.66;4260493;33;34479;-63
2023/05/22 03:19:07;;;;;;;6.50;4.45;;;;;;;24.66;43.18;99559.75;4260403;33;33694;-64
2023/05/22 03:21:35;;;;;;;7.35;4.50;;;;;;;24.65;43.26;99552.63;4260652;33;34145;-63
2023/05/22 03:24:03;;;;;;;7.55;4.65;;;;;;;24.65;43.15;99552.63;4260745;33;34665;-63
2023/05/22 03:26:32;;;;;;;7.85;5.10;;;;;;;24.65;43.13;99560.00;4260209;33;34752;-64
2023/05/22 03:29:00;;;;;;;7.32;5.05;;;;;;;24.65;43.13;99557.25;4259414;33;33969;-63
2023/05/22 03:31:30;;;;;;;7.18;4.37;;;;;;;24.64;43.11;99556.44;4260574;33;33644;-63
2023/05/22 03:33:58;;;;;;;6.90;4.47;;;;;;;24.64;43.11;99555.62;4260266;33;33703;-63
2023/05/22 03:36:26;;;;;;;7.72;4.20;;;;;;;24.65;43.18;99560.00;4259346;33;34754;-63
2023/05/22 03:38:53;;;;;;;6.25;4.70;;;;;;;24.63;43.19;99552.06;4260588;33;35207;-63
2023/05/22 03:41:21;;;;;;;6.70;4.05;;;;;;;24.64;43.10;99564.63;4260421;33;33199;-64
2023/05/22 03:43:49;;;;;;;6.70;4.05;;;;;;;24.64;43.13;99548.25;4260632;33;33870;-64
2023/05/22 03:46:17;;;;;;;5.95;4.30;;;;;;;24.64;43.11;99553.72;4260266;33;34017;-63
2023/05/22 03:48:44;;;;;;;6.93;4.20;;;;;;;24.64;43.10;99555.62;4260577;33;33085;-63
2023/05/22 03:51:12;;;;;;;8.63;4.57;;;;;;;24.64;43.13;99552.88;4260333;33;33410;-64
2023/05/22 03:53:40;;;;;;;6.70;4.35;;;;;;;24.63;43.18;99552.06;4260104;33;33737;-68
2023/05/22 03:56:07;;;;;;;6.62;4.40;;;;;;;24.64;43.22;99552.88;4257723;33;34810;-68
2023/05/22 03:58:35;;;;;;;6.85;4.37;;;;;;;24.63;43.26;99552.06;4251848;33;34837;-68
2023/05/22 04:01:03;;;;;;;6.57;4.43;;;;;;;24.64;43.34;99550.97;4250441;33;34186;-68
2023/05/22 04:03:31;;;;;;;6.22;4.03;;;;;;;24.66;43.46;99553.47;4250666;33;34858;-68
2023/05/22 04:05:59;;;;;;;6.72;4.47;;;;;;;24.66;43.52;99548.81;4250173;33;33807;-68
2023/05/22 04:08:26;;;;;;;7.18;4.28;;;;;;;24.66;43.60;99548.81;4253582;33;32559;-68
2023/05/22 04:10:54;;;;;;;6.60;4.37;;;;;;;24.66;43.63;99557.00;4247430;33;34081;-68
2023/05/22 04:13:22;;;;;;;8.65;4.35;;;;;;;24.67;43.65;99555.12;4250293;33;33976;-68
2023/05/22 04:15:51;;;;;;;5.45;3.83;;;;;;;24.67;43.65;99552.41;4245708;33;34685;-68
2023/05/22 04:18:20;;;;;;;6.25;4.03;;;;;;;24.66;43.67;99554.28;4245839;33;34111;-68
2023/05/22 04:20:50;;;;;;;6.37;4.57;;;;;;;24.67;43.69;99553.25;4246193;33;33602;-69
2023/05/22 04:23:18;;;;;;;7.12;3.92;;;;;;;24.67;43.69;99555.12;4244450;33;33875;-68
2023/05/22 04:25:47;;;;;;;9.65;4.47;;;;;;;24.67;43.70;99555.97;4257829;33;33878;-68
2023/05/22 04:28:21;;;;;;;7.05;4.57;;;;;;;24.66;43.70;99554.28;4258112;33;33494;-68
2023/05/22 04:30:49;;;;;;;8.85;4.78;;;;;;;24.67;43.76;99558.69;4258131;33;32876;-68
2023/05/22 04:33:17;;;;;;;8.27;4.40;;;;;;;24.68;43.86;99560.34;4258547;33;33495;-68
2023/05/22 04:35:45;;;;;;;9.15;4.55;;;;;;;24.68;44.07;99568.53;4258217;33;33577;-68
2023/05/22 04:38:12;;;;;;;7.97;4.28;;;;;;;24.69;44.23;99561.16;4258250;33;33664;-68
2023/05/22 04:40:40;;;;;;;7.82;4.40;;;;;;;24.70;44.31;99560.09;4258678;33;33091;-68
2023/05/22 04:43:08;;;;;;;8.65;4.53;;;;;;;24.71;44.41;99563.66;4258471;33;34636;-68
2023/05/22 04:45:43;;;;;;;6.45;4.43;;;;;;;24.71;44.45;99564.47;4259898;33;34101;-68
2023/05/22 04:48:15;;;;;;;10.37;4.00;;;;;;;24.70;44.48;99565.56;4259736;33;34190;-68
2023/05/22 04:50:45;;;;;;;6.15;3.87;;;;;;;24.72;44.44;99576.25;4250205;33;33760;-68
2023/05/22 04:53:12;;;;;;;7.22;4.03;;;;;;;24.71;44.48;99575.38;4260006;33;34634;-68
2023/05/22 04:55:40;;;;;;;8.35;4.45;;;;;;;24.72;44.49;99577.06;4259675;33;34019;-68
2023/05/22 04:58:08;;;;;;;9.32;4.25;;;;;;;24.72;44.51;99579.81;4259522;33;33972;-68
2023/05/22 05:00:36;;;;;;;7.50;4.00;;;;;;;24.70;44.49;99573.75;4256935;33;34039;-68
2023/05/22 05:03:06;;;;;;;6.45;3.83;;;;;;;24.71;44.48;99575.38;4245470;33;33795;-68
2023/05/22 05:05:34;;;;;;;;;;;;;;;24.72;44.47;99570.78;4245252;33;32916;-68
2023/05/22 05:08:02;;;;;;;7.55;3.92;;;;;;;24.81;44.27;99572.06;4245649;33;34161;-68
2023/05/22 05:10:30;;;;;;;8.43;4.00;;;;;;;24.74;44.47;99576.81;4245469;33;33828;-68
2023/05/22 05:12:57;;;;;;;8.38;4.20;;;;;;;24.72;44.51;99576.25;4245309;33;35180;-68
2023/05/22 05:15:26;;;;;;;6.80;4.15;;;;;;;24.70;44.52;99579.19;4245598;33;35240;-68
2023/05/22 05:17:54;;;;;;;7.22;3.83;;;;;;;24.69;44.53;99581.09;4245396;33;33643;-68
2023/05/22 05:20:23;;;;;;;6.45;3.85;;;;;;;24.69;44.53;99578.38;4244171;33;34156;-68
2023/05/22 05:22:51;;;;;;;6.90;4.05;;;;;;;24.70;44.51;99584.66;4245180;33;34686;-69
2023/05/22 05:25:19;;;;;;;6.47;4.47;;;;;;;24.69;44.53;99585.72;4245199;33;33885;-68
2023/05/22 05:27:47;;;;;;;7.68;4.07;;;;;;;24.69;44.54;99591.19;4247153;33;34543;-68
2023/05/22 05:30:15;;;;;;;6.40;3.80;;;;;;;24.69;44.54;99589.28;4246025;33;33426;-68
2023/05/22 05:32:47;;;;;;;5.95;3.67;;;;;;;24.71;44.54;99590.94;4246994;33;34362;-68
2023/05/22 05:35:15;;;;;;;7.55;4.03;;;;;;;24.71;44.54;99590.94;4258285;33;34398;-69
2023/05/22 05:37:43;;;;;;;7.10;4.45;;;;;;;24.69;44.54;99593.91;4261318;33;34828;-68
2023/05/22 05:40:12;;;;;;;5.37;3.60;;;;;;;24.69;44.53;99594.75;4261077;33;32936;-68
2023/05/22 05:42:41;;;;;;;6.57;3.60;;;;;;;24.70;44.53;99601.03;4248414;33;35822;-68
2023/05/22 05:45:10;;;;;;;7.25;3.70;;;;;;;24.71;44.52;99602.66;4261312;33;34240;-68
2023/05/22 05:47:37;;;;;;;6.55;3.90;;;;;;;24.71;44.54;99601.84;4261098;33;35051;-68
2023/05/22 05:50:08;;;;;;;5.82;3.72;;;;;;;24.71;44.53;99604.56;4260993;33;33340;-68
2023/05/22 05:52:36;;;;;;;5.80;3.70;;;;;;;24.71;44.56;99613.59;4261010;33;34659;-68
2023/05/22 05:55:05;;;;;;;5.00;3.55;;;;;;;24.72;44.57;99606.25;4261235;33;34852;-68
2023/05/22 05:57:32;;;;;;;6.55;3.67;;;;;;;24.73;44.57;99607.91;4261007;33;33715;-68
2023/05/22 06:00:00;;;;;;;8.32;3.90;;;;;;;24.72;44.60;99603.53;4260944;33;33526;-68
2023/05/22 06:02:40;;;;;;;7.13;4.00;;;;;;;24.71;44.59;99602.66;4246670;33;34746;-68
2023/05/22 06:05:14;;;;;;;6.15;3.53;;;;;;;24.73;44.56;99603.28;4246936;33;33943;-68
2023/05/22 06:07:42;;;;;;;9.18;4.40;;;;;;;24.73;44.56;99602.47;4246988;33;33642;-68
2023/05/22 06:10:10;;;;;;;11.23;4.62;;;;;;;24.73;44.55;99605.19;4234101;33;34136;-68
2023/05/22 06:12:39;;;;;;;7.65;3.83;;;;;;;24.71;44.54;99602.66;4234121;33;34668;-69
2023/05/22 06:15:07;;;;;;;6.18;3.87;;;;;;;24.73;44.50;99599.72;4246882;33;34021;-68
2023/05/22 06:17:36;;;;;;;8.38;4.20;;;;;;;24.71;44.51;99602.66;4246951;33;34391;-69
2023/05/22 06:20:05;;;;;;;9.60;4.53;;;;;;;24.72;44.49;99592.62;4246579;33;33179;-68
2023/05/22 06:22:33;;;;;;;9.95;4.10;;;;;;;24.72;44.46;99592.62;4246717;33;33627;-68
2023/05/22 06:25:02;;;;;;;6.03;3.80;;;;;;;24.73;44.43;99591.53;4246588;33;34521;-68
2023/05/22 06:27:30;;;;;;;8.38;3.85;;;;;;;24.72;44.41;99595.34;4246717;33;33402;-68
2023/05/22 06:30:00;;;;;;;8.88;3.70;;;;;;;24.71;44.41;99602.66;4246800;33;33619;-68
2023/05/22 06:32:30;;;;;;;7.03;3.70;;;;;;;24.71;44.40;99602.66;4246823;33;34765;-68
2023/05/22 06:34:58;;;;;;;8.82;4.25;;;;;;;24.72;44.35;99587.16;4246655;33;33566;-68
2023/05/22 06:37:26;;;;;;;7.22;3.45;;;;;;;24.72;44.33;99595.34;4245939;33;34607;-68
2023/05/22 06:39:54;;;;;;;6.80;3.58;;;;;;;24.72;44.33;99598.06;4246801;33;33482;-68
2023/05/22 06:42:22;;;;;;;6.57;3.70;;;;;;;24.71;44.29;99605.41;4246650;33;33524;-68
2023/05/22 06:44:53;;;;;;;9.18;3.78;;;;;;;24.71;44.27;99601.84;4234286;33;33525;-68
2023/05/22 06:47:20;;;;;;;8.60;4.20;;;;;;;24.71;44.27;99599.94;4246654;33;34015;-68
2023/05/22 06:49:48;;;;;;;8.38;4.05;;;;;;;24.71;44.25;99604.56;4246768;33;34005;-68
2023/05/22 06:52:16;;;;;;;7.45;3.78;;;;;;;24.71;44.24;99613.59;4246699;33;33611;-68
2023/05/22 06:54:43;;;;;;;8.15;3.65;;;;;;;24.71;44.23;99604.56;4246672;33;33934;-68
2023/05/22 06:57:13;;;;;;;7.15;3.78;;;;;;;24.72;44.20;99609.00;4246521;33;33625;-68
2023/05/22 06:59:41;;;;;;;6.35;3.58;;;;;;;24.72;44.18;99606.25;4246643;33;32989;-69
2023/05/22 07:02:11;;;;;;;;;;;;;;;24.72;44.15;99611.72;4258870;33;34861;-68
2023/05/22 07:04:41;;;;;;;5.68;3.22;;;;;;;24.82;43.90;99614.66;4260904;33;34756;-68
2023/05/22 07:07:10;;;;;;;7.32;3.80;;;;;;;24.75;43.95;99603.84;4260839;33;34677;-68
2023/05/22 07:09:38;;;;;;;6.72;3.80;;;;;;;24.73;43.99;99605.19;4259172;33;33360;-68
2023/05/22 07:12:06;;;;;;;7.40;3.83;;;;;;;24.73;43.93;99602.47;4260767;33;33878;-68
2023/05/22 07:14:34;;;;;;;6.10;3.58;;;;;;;24.72;43.80;99611.72;4259296;33;34422;-67
2023/05/22 07:17:02;;;;;;;7.05;3.90;;;;;;;24.72;43.83;99609.00;4260589;33;34060;-67
2023/05/22 07:19:30;;;;;;;5.15;3.55;;;;;;;24.72;43.79;99598.06;4260408;33;33570;-67
2023/05/22 07:21:59;;;;;;;5.75;3.33;;;;;;;24.72;43.67;99604.34;4260661;33;33541;-68
2023/05/22 07:24:27;;;;;;;5.65;3.35;;;;;;;24.72;43.67;99618.00;4260505;33;33861;-68
2023/05/22 07:26:54;;;;;;;6.05;3.78;;;;;;;24.73;43.65;99613.37;4260637;33;33980;-67
2023/05/22 07:29:22;;;;;;;7.10;3.72;;;;;;;24.72;43.69;99617.19;4260441;33;33367;-67
2023/05/22 07:31:50;;;;;;;6.18;3.62;;;;;;;24.73;43.69;99624.28;4260546;33;34972;-68
2023/05/22 07:34:19;;;;;;;6.90;3.50;;;;;;;24.73;43.67;99625.09;4260316;33;33423;-67
2023/05/22 07:36:49;;;;;;;5.95;3.75;;;;;;;24.73;43.63;99616.94;4260132;33;33760;-68
2023/05/22 07:39:17;;;;;;;8.25;3.47;;;;;;;24.75;43.64;99613.94;4260527;33;34753;-68
2023/05/22 07:41:48;;;;;;;5.80;3.87;;;;;;;24.72;43.68;99615.28;4260301;33;33853;-68
2023/05/22 07:44:16;;;;;;;8.07;4.22;;;;;;;24.72;43.74;99620.72;4260083;33;33905;-68
2023/05/22 07:46:45;;;;;;;9.23;3.47;;;;;;;24.73;43.75;99610.63;4260504;33;34591;-67
2023/05/22 07:49:18;;;;;;;5.05;3.05;;;;;;;24.73;43.81;99607.91;4260125;33;33503;-67
2023/05/22 07:51:46;;;;;;;8.13;3.45;;;;;;;24.72;43.86;99604.34;4260103;33;34849;-68
2023/05/22 07:54:14;;;;;;;7.93;3.85;;;;;;;24.73;43.92;99607.91;4260450;33;34080;-67
2023/05/22 07:56:42;;;;;;;10.60;3.83;;;;;;;24.73;43.98;99607.91;4260487;33;34078;-67
2023/05/22 07:59:11;;;;;;;6.90;3.42;;;;;;;24.75;44.00;99608.50;4260328;33;33946;-67
2023/05/22 08:01:39;;;;;;;9.57;4.05;;;;;;;24.73;44.05;99599.72;4251069;33;33328;-67
2023/05/22 08:04:07;;;;;;;9.35;4.20;;;;;;;24.73;44.10;99603.28;4245962;33;33740;-68
2023/05/22 08:06:35;;;;;;;8.38;3.87;;;;;;;24.73;44.15;99605.19;4246058;33;33767;-67
2023/05/22 08:09:03;;;;;;;9.20;4.03;;;;;;;24.74;44.19;99601.38;4246017;33;33033;-67
2023/05/22 08:11:31;;;;;;;8.68;3.87;;;;;;;24.73;44.25;99600.56;4246132;33;34817;-67
2023/05/22 08:14:00;;;;;;;7.35;3.97;;;;;;;24.74;44.34;99604.09;4246122;33;34774;-68
2023/05/22 08:16:29;;;;;;;9.40;4.28;;;;;;;24.74;44.39;99606.84;4245978;33;34634;-68
2023/05/22 08:18:57;;;;;;;6.40;3.50;;;;;;;24.75;44.44;99608.50;4245866;33;33444;-67
2023/05/22 08:21:25;;;;;;;8.75;4.00;;;;;;;24.75;44.45;99608.50;4245981;33;33775;-68
2023/05/22 08:23:52;;;;;;;11.10;4.10;;;;;;;24.76;44.44;99610.13;4245818;33;34046;-68
2023/05/22 08:26:24;;;;;;;9.02;4.45;;;;;;;24.74;44.48;99609.56;4245714;33;34003;-68
2023/05/22 08:28:52;;;;;;;6.65;3.72;;;;;;;24.74;44.53;99610.38;4245809;33;33426;-68
2023/05/22 08:31:20;;;;;;;6.43;3.72;;;;;;;24.75;44.58;99600.31;4245813;33;34191;-67
2023/05/22 08:33:47;;;;;;;7.70;3.60;;;;;;;24.74;44.58;99601.38;4245680;33;35378;-68
2023/05/22 08:36:15;;;;;;;11.60;4.05;;;;;;;24.75;44.66;99611.22;4245887;33;33670;-67
2023/05/22 08:38:43;;;;;;;8.07;4.00;;;;;;;24.75;44.68;99608.50;4245855;33;33535;-68
2023/05/22 08:41:10;;;;;;;9.52;3.62;;;;;;;24.75;44.72;99611.22;4245582;33;34628;-67
2023/05/22 08:43:39;;;;;;;7.07;3.55;;;;;;;24.75;44.66;99608.50;4233023;33;33836;-67
2023/05/22 08:46:07;;;;;;;8.90;3.47;;;;;;;24.76;44.66;99612.87;4232976;33;34609;-68
2023/05/22 08:48:35;;;;;;;7.50;3.75;;;;;;;24.76;44.66;99611.00;4244724;33;33265;-68
2023/05/22 08:51:03;;;;;;;7.22;3.35;;;;;;;24.76;44.64;99612.87;4244416;33;34230;-68
2023/05/22 08:53:37;;;;;;;6.68;3.80;;;;;;;24.77;44.63;99609.09;4244436;33;33721;-67
2023/05/22 08:56:07;;;;;;;7.65;3.65;;;;;;;24.77;44.56;99606.38;4244280;33;34023;-68
2023/05/22 08:58:36;;;;;;;9.85;3.83;;;;;;;24.77;44.54;99606.38;4245634;33;33542;-68
2023/05/22 09:01:04;;;;;;;6.78;3.30;;;;;;;24.78;44.64;99611.56;4249742;33;33875;-68
2023/05/22 09:03:31;;;;;;;6.18;3.35;;;;;;;24.79;44.60;99617.84;4259811;33;33937;-68
2023/05/22 09:06:00;;;;;;;5.87;3.53;;;;;;;24.79;44.55;99606.94;4259540;33;34689;-68
2023/05/22 09:08:27;;;;;;;8.85;3.55;;;;;;;24.79;44.53;99610.50;4246723;33;34407;-68
2023/05/22 09:10:55;;;;;;;7.55;3.42;;;;;;;24.79;44.51;99613.22;4254729;33;34640;-67
2023/05/22 09:13:30;;;;;;;6.10;3.45;;;;;;;24.81;44.49;99602.09;4258202;33;34848;-67
2023/05/22 09:15:59;;;;;;;7.82;3.22;;;;;;;24.82;44.38;99603.75;4259338;33;34187;-68
2023/05/22 09:18:28;;;;;;;9.23;4.20;;;;;;;24.81;44.43;99608.38;4259611;33;33053;-68
2023/05/22 09:21:00;;;;;;;7.57;3.92;;;;;;;24.83;44.36;99599.94;4258255;33;33617;-67
2023/05/22 09:23:29;;;;;;;7.47;3.87;;;;;;;24.82;44.40;99601.00;4259525;33;34227;-67
2023/05/22 09:25:57;;;;;;;7.37;4.05;;;;;;;24.82;44.28;99611.94;4254787;33;34620;-67
2023/05/22 09:28:25;;;;;;;8.23;3.50;;;;;;;24.82;44.19;99604.56;4259092;33;32358;-69
2023/05/22 09:30:54;;;;;;;8.27;4.07;;;;;;;24.82;44.04;99606.47;4258552;33;33954;-69
2023/05/22 09:33:22;;;;;;;7.82;3.58;;;;;;;24.82;43.57;99606.47;4253819;33;34975;-69
2023/05/22 09:35:51;;;;;;;8.45;3.67;;;;;;;24.82;43.36;99603.75;4258248;33;34360;-69
2023/05/22 09:38:20;;;;;;;7.30;3.92;;;;;;;24.82;43.53;99601.00;4243751;33;34412;-68
2023/05/22 09:40:51;;;;;;;7.67;3.67;;;;;;;24.84;43.60;99604.31;4245412;33;34591;-69
2023/05/22 09:43:20;;;;;;;6.78;3.97;;;;;;;24.84;43.60;99601.59;4233659;33;34796;-69
2023/05/22 09:45:47;;;;;;;7.03;3.70;;;;;;;24.84;43.71;99596.97;4246214;33;34547;-69
2023/05/22 09:48:15;;;;;;;6.90;3.67;;;;;;;24.84;43.76;99601.59;4257121;33;32926;-69
2023/05/22 09:50:47;;;;;;;8.38;4.30;;;;;;;24.84;43.81;99596.97;4258035;33;34077;-68
2023/05/22 09:53:15;;;;;;;7.82;3.53;;;;;;;24.86;43.84;99599.47;4257459;33;34180;-68
2023/05/22 09:55:45;;;;;;;7.47;3.85;;;;;;;24.85;43.77;99595.06;4246044;33;33921;-70
2023/05/22 09:58:16;;;;;;;6.87;3.80;;;;;;;24.85;43.71;99592.31;4234150;33;33732;-68
2023/05/22 10:00:43;;;;;;;;;;;;;;;24.86;43.59;99594.00;4246323;33;33974;-69
2023/05/22 10:03:11;;;;;;;9.07;3.90;;;;;;;24.95;43.27;99598.03;4256486;33;34264;-69
2023/05/22 10:05:40;;;;;;;8.38;4.43;;;;;;;24.88;43.31;99598.13;4257046;33;33741;-70
2023/05/22 10:08:25;;;;;;;7.82;3.87;;;;;;;24.86;43.31;99600.28;4257785;33;33482;-70
2023/05/22 10:10:53;;;;;;;7.82;3.95;;;;;;;24.87;43.23;99590.19;4257114;33;33942;-70
2023/05/22 10:13:20;;;;;;;7.50;3.90;;;;;;;24.86;43.19;99588.56;4246916;33;34897;-69
2023/05/22 10:15:48;;;;;;;7.00;3.75;;;;;;;24.85;43.13;99587.69;4259574;33;33929;-70
2023/05/22 10:18:16;;;;;;;9.13;3.65;;;;;;;24.86;43.12;99588.56;4247555;33;32928;-69
2023/05/22 10:20:45;;;;;;;5.87;3.37;;;;;;;24.88;43.04;99586.41;4259986;33;34083;-68
2023/05/22 10:23:17;;;;;;;6.45;3.87;;;;;;;24.86;42.95;99581.19;4259950;33;35105;-68
2023/05/22 10:25:45;;;;;;;8.70;3.80;;;;;;;24.87;42.76;99579.28;4223084;33;33620;-69
2023/05/22 10:28:15;;;;;;;8.95;3.40;;;;;;;24.86;42.72;99575.72;4253450;33;33401;-69
2023/05/22 10:30:48;;;;;;;6.00;3.85;;;;;;;24.87;42.76;99574.66;4258651;33;34806;-68
2023/05/22 10:33:41;;;;;;;9.13;3.70;;;;;;;24.87;42.80;99571.94;4257288;33;34137;-70
2023/05/22 10:36:12;;;;;;;6.07;3.30;;;;;;;24.91;42.75;99569.56;4247358;33;33825;-69
2023/05/22 10:38:49;;;;;;;7.28;3.67;;;;;;;24.87;42.79;99562.91;4234277;33;33714;-69
2023/05/22 10:41:17;;;;;;;9.90;3.90;;;;;;;24.89;42.83;99558.03;4260051;33;35195;-69
2023/05/22 10:43:47;;;;;;;6.20;3.40;;;;;;;24.89;42.75;99549.84;4259005;33;34000;-69
2023/05/22 10:46:15;;;;;;;8.48;4.30;;;;;;;24.88;42.72;99556.38;4260520;33;34818;-69
2023/05/22 10:48:44;;;;;;;8.82;3.95;;;;;;;24.89;42.57;99555.31;4259914;33;32888;-67
2023/05/22 10:51:13;;;;;;;11.93;5.20;;;;;;;24.91;42.46;99555.91;4260517;33;33795;-69
2023/05/22 10:53:46;;;;;;;10.50;5.40;;;;;;;24.94;42.21;99548.03;4260371;33;33835;-70
2023/05/22 10:56:17;;;;;;;11.00;4.43;;;;;;;24.91;41.95;99551.28;4259316;33;34060;-69
2023/05/22 10:58:55;;;;;;;7.62;4.28;;;;;;;24.92;41.52;99535.72;4259943;33;33595;-69
2023/05/22 11:01:26;;;;;;;10.15;5.30;;;;;;;24.92;41.46;99538.44;4258965;33;34014;-69
2023/05/22 11:03:57;;;;;;;6.82;3.83;;;;;;;24.93;41.58;99540.09;4260701;33;32803;-69
2023/05/22 11:06:39;;;;;;;10.07;4.57;;;;;;;24.93;41.52;99540.09;4259823;33;33733;-69
2023/05/22 11:09:26;;;;;;;9.02;4.37;;;;;;;24.96;40.91;99528.72;4258720;33;33046;-69
2023/05/22 11:12:16;;;;;;;8.45;4.68;;;;;;;24.99;41.06;99533.66;4259769;33;34670;-68
2023/05/22 11:14:50;;;;;;;8.35;4.35;;;;;;;24.99;41.01;99528.19;4246239;33;33948;-69
2023/05/22 11:17:22;;;;;;;11.68;4.80;;;;;;;24.97;41.16;99524.91;4259499;33;33825;-70
2023/05/22 11:20:03;;;;;;;7.57;3.90;;;;;;;24.96;41.35;99516.97;4259219;33;33057;-70
2023/05/22 11:22:36;;;;;;;6.55;3.67;;;;;;;24.97;41.34;99521.34;4257093;33;33957;-68
2023/05/22 11:25:24;;;;;;;9.60;4.28;;;;;;;24.97;41.10;99522.16;4245970;33;35244;-69
2023/05/22 11:27:53;;;;;;;7.57;4.03;;;;;;;25.01;40.73;99512.44;4247583;33;34512;-69
2023/05/22 11:30:24;;;;;;;9.68;4.43;;;;;;;24.99;40.53;99513.72;4258800;33;33330;-69
2023/05/22 11:32:51;;;;;;;9.18;4.00;;;;;;;25.00;39.94;99510.78;4257488;33;34355;-68
2023/05/22 11:35:20;;;;;;;8.48;4.30;;;;;;;25.00;40.08;99513.50;4259235;33;34853;-70
2023/05/22 11:37:49;;;;;;;7.03;4.40;;;;;;;25.02;39.79;99505.06;4259228;33;33967;-68
2023/05/22 11:40:18;;;;;;;8.95;4.65;;;;;;;25.02;39.93;99508.63;4259789;33;33471;-69
2023/05/22 11:42:46;;;;;;;8.80;4.90;;;;;;;25.05;39.25;99504.59;4247603;33;33582;-69
2023/05/22 11:45:14;;;;;;;8.93;3.75;;;;;;;25.05;39.23;99494.50;4259597;33;34682;-69